sensor_id;sensor_type;location;lat;lon;timestamp;P1;durP1;ratioP1;P2;durP2;ratioP2
12908;SDS011;6522;49.622;6.126;2022-09-09T00:04:11;4.85;;;2.00;;
12908;SDS011;6522;49.622;6.126;2022-09-09T00:07:07;7.32;;;2.97;;
12908;SDS011;6522;49.622;6.126;2022-09-09T00:10:00;4.18;;;2.08;;
12908;SDS011;6522;49.622;6.126;2022-09-09T00:16:00;6.45;;;2.28;;
12908;SDS011;6522;49.622;6.126;2022-09-09T00:21:39;9.65;;;2.55;;
12908;SDS011;6522;49.622;6.126;2022-09-09T00:24:32;7.72;;;1.98;;
12908;SDS011;6522;49.622;6.126;2022-09-09T00:27:14;4.93;;;3.75;;
12908;SDS011;6522;49.622;6.126;2022-09-09T00:33:10;4.28;;;2.30;;
12908;SDS011;6522;49.622;6.126;2022-09-09T00:35:59;6.05;;;2.87;;
12908;SDS011;6522;49.622;6.126;2022-09-09T00:38:49;7.12;;;2.70;;
12908;SDS011;6522;49.622;6.126;2022-09-09T00:44:32;5.50;;;3.58;;
12908;SDS011;6522;49.622;6.126;2022-09-09T00:53:14;4.30;;;2.17;;
12908;SDS011;6522;49.622;6.126;2022-09-09T00:56:04;4.78;;;2.80;;
12908;SDS011;6522;49.622;6.126;2022-09-09T00:58:51;5.18;;;2.28;;
12908;SDS011;6522;49.622;6.126;2022-09-09T01:01:33;5.35;;;2.85;;
12908;SDS011;6522;49.622;6.126;2022-09-09T01:04:23;5.07;;;2.70;;
12908;SDS011;6522;49.622;6.126;2022-09-09T01:07:10;6.07;;;2.60;;
12908;SDS011;6522;49.622;6.126;2022-09-09T01:12:41;7.72;;;2.80;;
12908;SDS011;6522;49.622;6.126;2022-09-09T01:15:27;4.70;;;2.35;;
12908;SDS011;6522;49.622;6.126;2022-09-09T01:18:15;6.97;;;2.70;;
12908;SDS011;6522;49.622;6.126;2022-09-09T01:23:51;5.82;;;2.85;;
12908;SDS011;6522;49.622;6.126;2022-09-09T01:26:35;6.90;;;2.58;;
12908;SDS011;6522;49.622;6.126;2022-09-09T01:29:21;5.00;;;2.60;;
12908;SDS011;6522;49.622;6.126;2022-09-09T01:38:05;5.50;;;2.33;;
12908;SDS011;6522;49.622;6.126;2022-09-09T01:40:52;4.78;;;2.60;;
12908;SDS011;6522;49.622;6.126;2022-09-09T01:43:38;6.22;;;3.60;;
12908;SDS011;6522;49.622;6.126;2022-09-09T01:46:25;3.83;;;2.55;;
12908;SDS011;6522;49.622;6.126;2022-09-09T01:49:12;5.45;;;3.25;;
12908;SDS011;6522;49.622;6.126;2022-09-09T01:51:59;5.12;;;2.72;;
12908;SDS011;6522;49.622;6.126;2022-09-09T01:54:46;4.15;;;2.28;;
12908;SDS011;6522;49.622;6.126;2022-09-09T01:57:55;8.18;;;2.78;;
12908;SDS011;6522;49.622;6.126;2022-09-09T02:00:22;7.12;;;2.95;;
12908;SDS011;6522;49.622;6.126;2022-09-09T02:03:14;6.82;;;2.45;;
12908;SDS011;6522;49.622;6.126;2022-09-09T02:08:49;5.57;;;2.30;;
12908;SDS011;6522;49.622;6.126;2022-09-09T02:11:35;4.57;;;2.85;;
12908;SDS011;6522;49.622;6.126;2022-09-09T02:14:23;7.87;;;2.08;;
12908;SDS011;6522;49.622;6.126;2022-09-09T02:17:09;6.75;;;2.65;;
12908;SDS011;6522;49.622;6.126;2022-09-09T02:20:06;3.45;;;2.20;;
12908;SDS011;6522;49.622;6.126;2022-09-09T02:22:49;6.12;;;2.25;;
12908;SDS011;6522;49.622;6.126;2022-09-09T02:25:35;8.85;;;2.45;;
12908;SDS011;6522;49.622;6.126;2022-09-09T02:28:22;3.40;;;2.30;;
12908;SDS011;6522;49.622;6.126;2022-09-09T02:31:09;5.60;;;1.90;;
12908;SDS011;6522;49.622;6.126;2022-09-09T02:33:59;3.08;;;2.35;;
12908;SDS011;6522;49.622;6.126;2022-09-09T02:36:43;6.43;;;2.85;;
12908;SDS011;6522;49.622;6.126;2022-09-09T02:39:29;3.53;;;2.30;;
12908;SDS011;6522;49.622;6.126;2022-09-09T02:42:16;8.18;;;3.22;;
12908;SDS011;6522;49.622;6.126;2022-09-09T02:45:03;6.15;;;3.00;;
12908;SDS011;6522;49.622;6.126;2022-09-09T02:51:03;9.15;;;3.40;;
12908;SDS011;6522;49.622;6.126;2022-09-09T02:53:49;5.65;;;2.60;;
12908;SDS011;6522;49.622;6.126;2022-09-09T02:56:35;4.37;;;2.67;;
12908;SDS011;6522;49.622;6.126;2022-09-09T02:59:21;5.55;;;2.60;;
12908;SDS011;6522;49.622;6.126;2022-09-09T03:02:08;3.45;;;2.20;;
12908;SDS011;6522;49.622;6.126;2022-09-09T03:04:55;5.35;;;2.10;;
12908;SDS011;6522;49.622;6.126;2022-09-09T03:07:41;3.45;;;1.95;;
12908;SDS011;6522;49.622;6.126;2022-09-09T03:10:28;5.65;;;2.50;;
12908;SDS011;6522;49.622;6.126;2022-09-09T03:13:15;8.52;;;2.45;;
12908;SDS011;6522;49.622;6.126;2022-09-09T03:16:01;6.57;;;2.60;;
12908;SDS011;6522;49.622;6.126;2022-09-09T03:18:48;3.65;;;2.35;;
12908;SDS011;6522;49.622;6.126;2022-09-09T03:21:35;4.55;;;2.00;;
12908;SDS011;6522;49.622;6.126;2022-09-09T03:24:22;3.92;;;2.50;;
12908;SDS011;6522;49.622;6.126;2022-09-09T03:27:09;8.30;;;3.17;;
12908;SDS011;6522;49.622;6.126;2022-09-09T03:29:55;7.37;;;2.42;;
12908;SDS011;6522;49.622;6.126;2022-09-09T03:32:42;5.68;;;3.20;;
12908;SDS011;6522;49.622;6.126;2022-09-09T03:35:29;5.80;;;2.80;;
12908;SDS011;6522;49.622;6.126;2022-09-09T03:38:15;6.15;;;2.60;;
12908;SDS011;6522;49.622;6.126;2022-09-09T03:41:02;6.72;;;2.62;;
12908;SDS011;6522;49.622;6.126;2022-09-09T03:43:52;7.15;;;2.42;;
12908;SDS011;6522;49.622;6.126;2022-09-09T03:46:35;6.57;;;3.37;;
12908;SDS011;6522;49.622;6.126;2022-09-09T03:49:23;3.53;;;2.90;;
12908;SDS011;6522;49.622;6.126;2022-09-09T03:52:09;9.27;;;2.65;;
12908;SDS011;6522;49.622;6.126;2022-09-09T03:54:56;8.18;;;2.28;;
12908;SDS011;6522;49.622;6.126;2022-09-09T03:57:43;8.88;;;2.85;;
12908;SDS011;6522;49.622;6.126;2022-09-09T04:00:29;6.75;;;2.45;;
12908;SDS011;6522;49.622;6.126;2022-09-09T04:03:16;8.25;;;2.70;;
12908;SDS011;6522;49.622;6.126;2022-09-09T04:06:03;9.57;;;3.70;;
12908;SDS011;6522;49.622;6.126;2022-09-09T04:08:50;6.28;;;2.53;;
12908;SDS011;6522;49.622;6.126;2022-09-09T04:11:36;10.73;;;2.90;;
12908;SDS011;6522;49.622;6.126;2022-09-09T04:14:23;5.43;;;3.17;;
12908;SDS011;6522;49.622;6.126;2022-09-09T04:17:10;12.13;;;3.00;;
12908;SDS011;6522;49.622;6.126;2022-09-09T04:19:57;6.93;;;2.72;;
12908;SDS011;6522;49.622;6.126;2022-09-09T04:22:43;5.95;;;2.90;;
12908;SDS011;6522;49.622;6.126;2022-09-09T04:25:30;4.65;;;2.72;;
12908;SDS011;6522;49.622;6.126;2022-09-09T04:28:17;4.80;;;2.60;;
12908;SDS011;6522;49.622;6.126;2022-09-09T04:31:07;6.72;;;3.25;;
12908;SDS011;6522;49.622;6.126;2022-09-09T04:33:53;4.70;;;2.42;;
12908;SDS011;6522;49.622;6.126;2022-09-09T04:36:40;4.95;;;2.40;;
12908;SDS011;6522;49.622;6.126;2022-09-09T04:39:27;8.90;;;2.87;;
12908;SDS011;6522;49.622;6.126;2022-09-09T04:42:14;5.30;;;2.50;;
12908;SDS011;6522;49.622;6.126;2022-09-09T04:45:01;3.60;;;2.67;;
12908;SDS011;6522;49.622;6.126;2022-09-09T04:47:48;5.18;;;2.45;;
12908;SDS011;6522;49.622;6.126;2022-09-09T04:50:35;9.95;;;3.35;;
12908;SDS011;6522;49.622;6.126;2022-09-09T04:53:21;4.03;;;2.40;;
12908;SDS011;6522;49.622;6.126;2022-09-09T04:56:12;7.22;;;3.10;;
12908;SDS011;6522;49.622;6.126;2022-09-09T04:58:58;8.55;;;3.25;;
12908;SDS011;6522;49.622;6.126;2022-09-09T05:01:45;7.20;;;2.28;;
12908;SDS011;6522;49.622;6.126;2022-09-09T05:04:31;9.88;;;3.78;;
12908;SDS011;6522;49.622;6.126;2022-09-09T05:07:18;10.77;;;3.35;;
12908;SDS011;6522;49.622;6.126;2022-09-09T05:10:04;8.70;;;3.22;;
12908;SDS011;6522;49.622;6.126;2022-09-09T05:12:54;5.85;;;3.30;;
12908;SDS011;6522;49.622;6.126;2022-09-09T05:15:41;6.57;;;3.37;;
12908;SDS011;6522;49.622;6.126;2022-09-09T05:18:28;6.25;;;3.20;;
12908;SDS011;6522;49.622;6.126;2022-09-09T05:21:18;7.55;;;2.95;;
12908;SDS011;6522;49.622;6.126;2022-09-09T05:24:01;8.63;;;3.78;;
12908;SDS011;6522;49.622;6.126;2022-09-09T05:26:48;6.40;;;3.10;;
12908;SDS011;6522;49.622;6.126;2022-09-09T05:29:35;6.22;;;2.28;;
12908;SDS011;6522;49.622;6.126;2022-09-09T05:32:21;12.02;;;3.65;;
12908;SDS011;6522;49.622;6.126;2022-09-09T05:35:08;12.20;;;2.80;;
12908;SDS011;6522;49.622;6.126;2022-09-09T05:37:58;7.10;;;2.60;;
12908;SDS011;6522;49.622;6.126;2022-09-09T05:40:46;4.50;;;2.25;;
12908;SDS011;6522;49.622;6.126;2022-09-09T05:43:28;8.73;;;3.03;;
12908;SDS011;6522;49.622;6.126;2022-09-09T05:46:17;9.27;;;3.00;;
12908;SDS011;6522;49.622;6.126;2022-09-09T05:49:02;10.57;;;3.17;;
12908;SDS011;6522;49.622;6.126;2022-09-09T05:51:48;4.85;;;2.30;;
12908;SDS011;6522;49.622;6.126;2022-09-09T05:54:36;6.78;;;2.95;;
12908;SDS011;6522;49.622;6.126;2022-09-09T05:57:22;6.18;;;2.30;;
12908;SDS011;6522;49.622;6.126;2022-09-09T06:00:09;6.35;;;2.50;;
12908;SDS011;6522;49.622;6.126;2022-09-09T06:02:56;7.32;;;2.50;;
12908;SDS011;6522;49.622;6.126;2022-09-09T06:05:43;5.47;;;2.40;;
12908;SDS011;6522;49.622;6.126;2022-09-09T06:08:31;6.72;;;3.35;;
12908;SDS011;6522;49.622;6.126;2022-09-09T06:11:18;10.65;;;3.85;;
12908;SDS011;6522;49.622;6.126;2022-09-09T06:14:04;7.85;;;2.70;;
12908;SDS011;6522;49.622;6.126;2022-09-09T06:16:51;3.83;;;2.80;;
12908;SDS011;6522;49.622;6.126;2022-09-09T06:19:38;4.15;;;2.90;;
12908;SDS011;6522;49.622;6.126;2022-09-09T06:22:24;11.18;;;3.30;;
12908;SDS011;6522;49.622;6.126;2022-09-09T06:25:11;5.22;;;3.60;;
12908;SDS011;6522;49.622;6.126;2022-09-09T06:27:58;6.50;;;3.60;;
12908;SDS011;6522;49.622;6.126;2022-09-09T06:30:45;6.82;;;3.35;;
12908;SDS011;6522;49.622;6.126;2022-09-09T06:33:32;8.73;;;5.07;;
12908;SDS011;6522;49.622;6.126;2022-09-09T06:36:26;6.68;;;2.95;;
12908;SDS011;6522;49.622;6.126;2022-09-09T06:39:11;8.45;;;3.40;;
12908;SDS011;6522;49.622;6.126;2022-09-09T06:41:58;8.65;;;3.60;;
12908;SDS011;6522;49.622;6.126;2022-09-09T06:44:45;4.60;;;2.72;;
12908;SDS011;6522;49.622;6.126;2022-09-09T06:47:31;5.90;;;3.45;;
12908;SDS011;6522;49.622;6.126;2022-09-09T06:50:18;9.02;;;3.30;;
12908;SDS011;6522;49.622;6.126;2022-09-09T06:53:05;9.73;;;3.75;;
12908;SDS011;6522;49.622;6.126;2022-09-09T06:55:51;5.90;;;3.75;;
12908;SDS011;6522;49.622;6.126;2022-09-09T06:58:41;6.70;;;3.62;;
12908;SDS011;6522;49.622;6.126;2022-09-09T07:01:32;11.12;;;4.32;;
12908;SDS011;6522;49.622;6.126;2022-09-09T07:04:17;6.28;;;3.83;;
12908;SDS011;6522;49.622;6.126;2022-09-09T07:07:04;5.68;;;3.75;;
12908;SDS011;6522;49.622;6.126;2022-09-09T07:09:51;9.48;;;4.20;;
12908;SDS011;6522;49.622;6.126;2022-09-09T07:12:37;6.45;;;3.67;;
12908;SDS011;6522;49.622;6.126;2022-09-09T07:15:24;5.07;;;3.45;;
12908;SDS011;6522;49.622;6.126;2022-09-09T07:18:11;7.03;;;3.47;;
12908;SDS011;6522;49.622;6.126;2022-09-09T07:20:57;8.27;;;4.50;;
12908;SDS011;6522;49.622;6.126;2022-09-09T07:23:44;5.55;;;4.22;;
12908;SDS011;6522;49.622;6.126;2022-09-09T07:26:31;6.43;;;5.00;;
12908;SDS011;6522;49.622;6.126;2022-09-09T07:29:18;8.60;;;4.70;;
12908;SDS011;6522;49.622;6.126;2022-09-09T07:32:04;8.90;;;6.55;;
12908;SDS011;6522;49.622;6.126;2022-09-09T07:34:51;6.97;;;3.90;;
12908;SDS011;6522;49.622;6.126;2022-09-09T07:37:37;5.65;;;4.22;;
12908;SDS011;6522;49.622;6.126;2022-09-09T07:40:24;13.05;;;4.55;;
12908;SDS011;6522;49.622;6.126;2022-09-09T07:43:11;8.95;;;4.93;;
12908;SDS011;6522;49.622;6.126;2022-09-09T07:45:58;9.38;;;5.30;;
12908;SDS011;6522;49.622;6.126;2022-09-09T07:48:45;5.47;;;5.03;;
12908;SDS011;6522;49.622;6.126;2022-09-09T07:51:32;7.10;;;5.37;;
12908;SDS011;6522;49.622;6.126;2022-09-09T07:54:18;9.27;;;5.72;;
12908;SDS011;6522;49.622;6.126;2022-09-09T07:57:07;8.05;;;6.10;;
12908;SDS011;6522;49.622;6.126;2022-09-09T07:59:54;12.77;;;5.75;;
12908;SDS011;6522;49.622;6.126;2022-09-09T08:02:41;6.07;;;5.47;;
12908;SDS011;6522;49.622;6.126;2022-09-09T08:05:28;7.20;;;5.45;;
12908;SDS011;6522;49.622;6.126;2022-09-09T08:08:14;6.03;;;5.37;;
12908;SDS011;6522;49.622;6.126;2022-09-09T08:11:05;11.52;;;5.87;;
12908;SDS011;6522;49.622;6.126;2022-09-09T08:13:49;8.07;;;5.70;;
12908;SDS011;6522;49.622;6.126;2022-09-09T08:16:36;13.40;;;5.47;;
12908;SDS011;6522;49.622;6.126;2022-09-09T08:19:22;5.60;;;5.12;;
12908;SDS011;6522;49.622;6.126;2022-09-09T08:22:08;12.40;;;5.62;;
12908;SDS011;6522;49.622;6.126;2022-09-09T08:24:55;6.20;;;5.60;;
12908;SDS011;6522;49.622;6.126;2022-09-09T08:27:42;8.05;;;4.60;;
12908;SDS011;6522;49.622;6.126;2022-09-09T08:30:28;6.28;;;4.60;;
12908;SDS011;6522;49.622;6.126;2022-09-09T08:33:15;9.15;;;5.60;;
12908;SDS011;6522;49.622;6.126;2022-09-09T08:36:02;5.50;;;4.90;;
12908;SDS011;6522;49.622;6.126;2022-09-09T08:38:52;6.37;;;5.43;;
12908;SDS011;6522;49.622;6.126;2022-09-09T08:41:40;5.70;;;4.87;;
12908;SDS011;6522;49.622;6.126;2022-09-09T08:44:29;8.25;;;4.72;;
12908;SDS011;6522;49.622;6.126;2022-09-09T08:47:31;7.90;;;5.18;;
12908;SDS011;6522;49.622;6.126;2022-09-09T08:53:18;7.15;;;5.35;;
12908;SDS011;6522;49.622;6.126;2022-09-09T08:56:08;8.70;;;6.78;;
12908;SDS011;6522;49.622;6.126;2022-09-09T08:58:52;8.25;;;7.40;;
12908;SDS011;6522;49.622;6.126;2022-09-09T09:04:33;9.98;;;7.68;;
12908;SDS011;6522;49.622;6.126;2022-09-09T09:13:18;8.75;;;7.95;;
12908;SDS011;6522;49.622;6.126;2022-09-09T09:16:48;10.37;;;9.07;;
12908;SDS011;6522;49.622;6.126;2022-09-09T09:18:49;8.68;;;7.97;;
12908;SDS011;6522;49.622;6.126;2022-09-09T09:21:38;11.80;;;10.53;;
12908;SDS011;6522;49.622;6.126;2022-09-09T09:27:14;11.48;;;8.70;;
12908;SDS011;6522;49.622;6.126;2022-09-09T09:30:01;11.90;;;10.70;;
12908;SDS011;6522;49.622;6.126;2022-09-09T09:32:50;9.60;;;8.80;;
12908;SDS011;6522;49.622;6.126;2022-09-09T09:35:34;10.10;;;9.10;;
12908;SDS011;6522;49.622;6.126;2022-09-09T09:38:22;12.60;;;11.70;;
12908;SDS011;6522;49.622;6.126;2022-09-09T09:41:08;10.13;;;9.32;;
12908;SDS011;6522;49.622;6.126;2022-09-09T09:43:54;9.40;;;8.70;;
12908;SDS011;6522;49.622;6.126;2022-09-09T09:46:41;11.43;;;10.80;;
12908;SDS011;6522;49.622;6.126;2022-09-09T09:49:28;9.65;;;8.77;;
12908;SDS011;6522;49.622;6.126;2022-09-09T09:52:15;9.82;;;8.93;;
12908;SDS011;6522;49.622;6.126;2022-09-09T09:55:02;11.20;;;10.60;;
12908;SDS011;6522;49.622;6.126;2022-09-09T09:57:48;10.20;;;9.40;;
12908;SDS011;6522;49.622;6.126;2022-09-09T10:00:35;11.20;;;10.30;;
12908;SDS011;6522;49.622;6.126;2022-09-09T10:06:09;11.40;;;10.60;;
12908;SDS011;6522;49.622;6.126;2022-09-09T10:08:56;11.50;;;10.70;;
12908;SDS011;6522;49.622;6.126;2022-09-09T10:14:48;11.43;;;10.70;;
12908;SDS011;6522;49.622;6.126;2022-09-09T10:17:41;11.57;;;10.77;;
12908;SDS011;6522;49.622;6.126;2022-09-09T10:23:24;13.07;;;12.17;;
12908;SDS011;6522;49.622;6.126;2022-09-09T10:26:10;11.73;;;10.82;;
12908;SDS011;6522;49.622;6.126;2022-09-09T10:29:04;12.83;;;11.90;;
12908;SDS011;6522;49.622;6.126;2022-09-09T10:32:07;13.20;;;12.20;;
12908;SDS011;6522;49.622;6.126;2022-09-09T10:34:52;13.30;;;12.30;;
12908;SDS011;6522;49.622;6.126;2022-09-09T10:40:28;14.00;;;13.00;;
12908;SDS011;6522;49.622;6.126;2022-09-09T10:52:19;15.37;;;14.47;;
12908;SDS011;6522;49.622;6.126;2022-09-09T10:55:14;12.50;;;11.45;;
12908;SDS011;6522;49.622;6.126;2022-09-09T10:57:57;13.80;;;13.10;;
12908;SDS011;6522;49.622;6.126;2022-09-09T11:00:45;11.82;;;11.00;;
12908;SDS011;6522;49.622;6.126;2022-09-09T11:03:30;11.45;;;10.55;;
12908;SDS011;6522;49.622;6.126;2022-09-09T11:06:19;13.70;;;12.90;;
12908;SDS011;6522;49.622;6.126;2022-09-09T11:09:04;11.70;;;10.90;;
12908;SDS011;6522;49.622;6.126;2022-09-09T11:14:52;13.07;;;12.37;;
12908;SDS011;6522;49.622;6.126;2022-09-09T11:17:56;11.85;;;10.98;;
12908;SDS011;6522;49.622;6.126;2022-09-09T11:20:21;11.32;;;10.65;;
12908;SDS011;6522;49.622;6.126;2022-09-09T11:23:15;14.30;;;13.40;;
12908;SDS011;6522;49.622;6.126;2022-09-09T11:26:00;12.25;;;11.45;;
12908;SDS011;6522;49.622;6.126;2022-09-09T11:32:54;14.60;;;13.70;;
12908;SDS011;6522;49.622;6.126;2022-09-09T11:38:02;14.80;;;14.10;;
12908;SDS011;6522;49.622;6.126;2022-09-09T11:40:44;14.77;;;14.07;;
12908;SDS011;6522;49.622;6.126;2022-09-09T11:43:31;15.83;;;14.80;;
12908;SDS011;6522;49.622;6.126;2022-09-09T11:46:22;13.00;;;12.00;;
12908;SDS011;6522;49.622;6.126;2022-09-09T11:49:54;14.20;;;13.30;;
12908;SDS011;6522;49.622;6.126;2022-09-09T11:51:54;11.60;;;10.90;;
12908;SDS011;6522;49.622;6.126;2022-09-09T11:54:46;14.10;;;13.30;;
12908;SDS011;6522;49.622;6.126;2022-09-09T11:57:32;12.15;;;11.35;;
12908;SDS011;6522;49.622;6.126;2022-09-09T12:00:31;12.00;;;11.30;;
12908;SDS011;6522;49.622;6.126;2022-09-09T12:06:27;13.02;;;12.13;;
12908;SDS011;6522;49.622;6.126;2022-09-09T12:09:17;12.80;;;12.00;;
12908;SDS011;6522;49.622;6.126;2022-09-09T12:14:55;14.77;;;14.07;;
12908;SDS011;6522;49.622;6.126;2022-09-09T12:17:41;16.10;;;14.83;;
12908;SDS011;6522;49.622;6.126;2022-09-09T12:20:37;14.83;;;14.03;;
12908;SDS011;6522;49.622;6.126;2022-09-09T12:29:02;15.33;;;14.27;;
12908;SDS011;6522;49.622;6.126;2022-09-09T12:31:52;12.80;;;12.00;;
12908;SDS011;6522;49.622;6.126;2022-09-09T12:34:40;15.40;;;14.60;;
12908;SDS011;6522;49.622;6.126;2022-09-09T12:37:37;12.53;;;11.73;;
12908;SDS011;6522;49.622;6.126;2022-09-09T12:40:26;12.30;;;11.60;;
12908;SDS011;6522;49.622;6.126;2022-09-09T12:43:18;14.70;;;13.87;;
12908;SDS011;6522;49.622;6.126;2022-09-09T12:46:07;12.52;;;11.63;;
12908;SDS011;6522;49.622;6.126;2022-09-09T12:48:51;13.73;;;12.52;;
12908;SDS011;6522;49.622;6.126;2022-09-09T12:51:38;14.40;;;13.70;;
12908;SDS011;6522;49.622;6.126;2022-09-09T12:54:25;13.02;;;12.27;;
12908;SDS011;6522;49.622;6.126;2022-09-09T12:57:12;15.20;;;14.30;;
12908;SDS011;6522;49.622;6.126;2022-09-09T13:00:11;12.02;;;11.20;;
12908;SDS011;6522;49.622;6.126;2022-09-09T13:02:56;11.60;;;10.80;;
12908;SDS011;6522;49.622;6.126;2022-09-09T13:05:41;15.53;;;14.53;;
12908;SDS011;6522;49.622;6.126;2022-09-09T13:08:28;13.30;;;12.40;;
12908;SDS011;6522;49.622;6.126;2022-09-09T13:11:16;14.30;;;13.70;;
12908;SDS011;6522;49.622;6.126;2022-09-09T13:14:01;15.03;;;14.33;;
12908;SDS011;6522;49.622;6.126;2022-09-09T13:16:54;13.67;;;12.83;;
12908;SDS011;6522;49.622;6.126;2022-09-09T13:19:43;12.52;;;11.60;;
12908;SDS011;6522;49.622;6.126;2022-09-09T13:22:31;12.17;;;11.43;;
12908;SDS011;6522;49.622;6.126;2022-09-09T13:25:22;9.00;;;8.40;;
12908;SDS011;6522;49.622;6.126;2022-09-09T13:28:21;6.10;;;5.50;;
12908;SDS011;6522;49.622;6.126;2022-09-09T13:31:19;5.05;;;4.50;;
12908;SDS011;6522;49.622;6.126;2022-09-09T13:33:54;5.37;;;4.90;;
12908;SDS011;6522;49.622;6.126;2022-09-09T13:36:41;4.05;;;3.50;;
12908;SDS011;6522;49.622;6.126;2022-09-09T13:39:28;3.42;;;2.45;;
12908;SDS011;6522;49.622;6.126;2022-09-09T13:42:22;5.93;;;3.60;;
12908;SDS011;6522;49.622;6.126;2022-09-09T13:45:05;4.90;;;3.58;;
12908;SDS011;6522;49.622;6.126;2022-09-09T13:47:55;4.18;;;2.53;;
12908;SDS011;6522;49.622;6.126;2022-09-09T13:50:38;4.43;;;2.97;;
12908;SDS011;6522;49.622;6.126;2022-09-09T13:53:25;7.32;;;3.55;;
12908;SDS011;6522;49.622;6.126;2022-09-09T13:56:12;5.82;;;3.22;;
12908;SDS011;6522;49.622;6.126;2022-09-09T13:58:59;7.20;;;2.50;;
12908;SDS011;6522;49.622;6.126;2022-09-09T14:01:45;8.38;;;2.60;;
12908;SDS011;6522;49.622;6.126;2022-09-09T14:04:32;3.50;;;2.80;;
12908;SDS011;6522;49.622;6.126;2022-09-09T14:07:19;7.37;;;2.58;;
12908;SDS011;6522;49.622;6.126;2022-09-09T14:10:05;3.80;;;3.00;;
12908;SDS011;6522;49.622;6.126;2022-09-09T14:12:52;5.43;;;2.72;;
12908;SDS011;6522;49.622;6.126;2022-09-09T14:15:39;6.43;;;3.85;;
12908;SDS011;6522;49.622;6.126;2022-09-09T14:18:26;8.02;;;3.55;;
12908;SDS011;6522;49.622;6.126;2022-09-09T14:21:13;8.55;;;3.85;;
12908;SDS011;6522;49.622;6.126;2022-09-09T14:24:00;8.25;;;4.22;;
12908;SDS011;6522;49.622;6.126;2022-09-09T14:26:46;6.18;;;4.20;;
12908;SDS011;6522;49.622;6.126;2022-09-09T14:29:33;6.60;;;4.40;;
12908;SDS011;6522;49.622;6.126;2022-09-09T14:32:20;4.85;;;3.12;;
12908;SDS011;6522;49.622;6.126;2022-09-09T14:35:07;5.17;;;4.63;;
12908;SDS011;6522;49.622;6.126;2022-09-09T14:37:54;5.03;;;4.50;;
12908;SDS011;6522;49.622;6.126;2022-09-09T14:40:41;6.15;;;5.10;;
12908;SDS011;6522;49.622;6.126;2022-09-09T14:43:27;8.80;;;6.53;;
12908;SDS011;6522;49.622;6.126;2022-09-09T14:46:15;6.50;;;5.10;;
12908;SDS011;6522;49.622;6.126;2022-09-09T14:49:01;6.32;;;5.00;;
12908;SDS011;6522;49.622;6.126;2022-09-09T14:51:48;6.17;;;5.47;;
12908;SDS011;6522;49.622;6.126;2022-09-09T14:54:35;6.15;;;4.60;;
12908;SDS011;6522;49.622;6.126;2022-09-09T14:57:22;5.97;;;4.93;;
12908;SDS011;6522;49.622;6.126;2022-09-09T15:00:09;6.80;;;4.70;;
12908;SDS011;6522;49.622;6.126;2022-09-09T15:02:56;5.93;;;3.50;;
12908;SDS011;6522;49.622;6.126;2022-09-09T15:05:43;8.20;;;4.70;;
12908;SDS011;6522;49.622;6.126;2022-09-09T15:08:30;5.10;;;2.90;;
12908;SDS011;6522;49.622;6.126;2022-09-09T15:11:17;6.05;;;3.40;;
12908;SDS011;6522;49.622;6.126;2022-09-09T15:14:08;9.03;;;4.43;;
12908;SDS011;6522;49.622;6.126;2022-09-09T15:16:54;3.92;;;2.78;;
12908;SDS011;6522;49.622;6.126;2022-09-09T15:19:41;5.60;;;3.20;;
12908;SDS011;6522;49.622;6.126;2022-09-09T15:22:27;5.83;;;3.53;;
12908;SDS011;6522;49.622;6.126;2022-09-09T15:25:14;5.15;;;2.50;;
12908;SDS011;6522;49.622;6.126;2022-09-09T15:28:01;6.20;;;2.62;;
12908;SDS011;6522;49.622;6.126;2022-09-09T15:30:51;7.03;;;3.33;;
12908;SDS011;6522;49.622;6.126;2022-09-09T15:33:37;6.10;;;2.62;;
12908;SDS011;6522;49.622;6.126;2022-09-09T15:36:25;4.82;;;2.72;;
12908;SDS011;6522;49.622;6.126;2022-09-09T15:39:12;3.08;;;2.70;;
12908;SDS011;6522;49.622;6.126;2022-09-09T15:41:58;5.12;;;2.75;;
12908;SDS011;6522;49.622;6.126;2022-09-09T15:44:45;3.15;;;2.15;;
12908;SDS011;6522;49.622;6.126;2022-09-09T15:47:32;6.72;;;2.30;;
12908;SDS011;6522;49.622;6.126;2022-09-09T15:50:19;4.07;;;2.35;;
12908;SDS011;6522;49.622;6.126;2022-09-09T15:53:05;4.55;;;2.22;;
12908;SDS011;6522;49.622;6.126;2022-09-09T15:55:54;3.45;;;1.90;;
12908;SDS011;6522;49.622;6.126;2022-09-09T15:58:40;4.22;;;2.37;;
12908;SDS011;6522;49.622;6.126;2022-09-09T16:01:26;5.55;;;1.70;;
12908;SDS011;6522;49.622;6.126;2022-09-09T16:04:13;6.35;;;2.37;;
12908;SDS011;6522;49.622;6.126;2022-09-09T16:07:04;5.05;;;2.62;;
12908;SDS011;6522;49.622;6.126;2022-09-09T16:09:50;5.28;;;2.70;;
12908;SDS011;6522;49.622;6.126;2022-09-09T16:12:39;5.10;;;2.00;;
12908;SDS011;6522;49.622;6.126;2022-09-09T16:15:26;3.92;;;2.30;;
12908;SDS011;6522;49.622;6.126;2022-09-09T16:18:13;2.90;;;2.30;;
12908;SDS011;6522;49.622;6.126;2022-09-09T16:21:00;9.70;;;3.30;;
12908;SDS011;6522;49.622;6.126;2022-09-09T16:23:47;3.05;;;2.40;;
12908;SDS011;6522;49.622;6.126;2022-09-09T16:26:34;7.50;;;2.47;;
12908;SDS011;6522;49.622;6.126;2022-09-09T16:29:20;6.45;;;2.78;;
12908;SDS011;6522;49.622;6.126;2022-09-09T16:32:07;4.75;;;2.62;;
12908;SDS011;6522;49.622;6.126;2022-09-09T16:34:54;6.95;;;2.42;;
12908;SDS011;6522;49.622;6.126;2022-09-09T16:37:41;4.57;;;2.60;;
12908;SDS011;6522;49.622;6.126;2022-09-09T16:40:27;3.55;;;2.50;;
12908;SDS011;6522;49.622;6.126;2022-09-09T16:43:14;5.50;;;3.53;;
12908;SDS011;6522;49.622;6.126;2022-09-09T16:46:01;5.25;;;2.50;;
12908;SDS011;6522;49.622;6.126;2022-09-09T16:48:48;4.47;;;3.40;;
12908;SDS011;6522;49.622;6.126;2022-09-09T16:51:36;5.50;;;2.80;;
12908;SDS011;6522;49.622;6.126;2022-09-09T16:54:22;4.12;;;3.03;;
12908;SDS011;6522;49.622;6.126;2022-09-09T16:57:09;4.25;;;2.83;;
12908;SDS011;6522;49.622;6.126;2022-09-09T16:59:56;3.10;;;2.42;;
12908;SDS011;6522;49.622;6.126;2022-09-09T17:02:43;5.00;;;3.15;;
12908;SDS011;6522;49.622;6.126;2022-09-09T17:05:30;2.87;;;2.33;;
12908;SDS011;6522;49.622;6.126;2022-09-09T17:08:17;4.40;;;2.00;;
12908;SDS011;6522;49.622;6.126;2022-09-09T17:11:04;3.80;;;2.30;;
12908;SDS011;6522;49.622;6.126;2022-09-09T17:13:51;3.45;;;2.22;;
12908;SDS011;6522;49.622;6.126;2022-09-09T17:16:37;4.62;;;2.72;;
12908;SDS011;6522;49.622;6.126;2022-09-09T17:19:24;3.55;;;2.65;;
12908;SDS011;6522;49.622;6.126;2022-09-09T17:22:11;7.55;;;2.70;;
12908;SDS011;6522;49.622;6.126;2022-09-09T17:24:58;3.12;;;2.20;;
12908;SDS011;6522;49.622;6.126;2022-09-09T17:27:45;3.00;;;2.05;;
12908;SDS011;6522;49.622;6.126;2022-09-09T17:30:35;4.20;;;2.47;;
12908;SDS011;6522;49.622;6.126;2022-09-09T17:33:22;4.15;;;2.08;;
12908;SDS011;6522;49.622;6.126;2022-09-09T17:36:13;8.77;;;2.25;;
12908;SDS011;6522;49.622;6.126;2022-09-09T17:38:56;3.15;;;2.22;;
12908;SDS011;6522;49.622;6.126;2022-09-09T17:41:43;3.45;;;2.53;;
12908;SDS011;6522;49.622;6.126;2022-09-09T17:44:29;4.80;;;2.15;;
12908;SDS011;6522;49.622;6.126;2022-09-09T17:47:16;4.00;;;2.05;;
12908;SDS011;6522;49.622;6.126;2022-09-09T17:50:03;3.45;;;2.08;;
12908;SDS011;6522;49.622;6.126;2022-09-09T17:52:50;5.80;;;2.87;;
12908;SDS011;6522;49.622;6.126;2022-09-09T17:55:37;5.55;;;2.50;;
12908;SDS011;6522;49.622;6.126;2022-09-09T17:58:24;4.15;;;2.37;;
12908;SDS011;6522;49.622;6.126;2022-09-09T18:01:12;5.00;;;2.45;;
12908;SDS011;6522;49.622;6.126;2022-09-09T18:03:58;3.80;;;2.35;;
12908;SDS011;6522;49.622;6.126;2022-09-09T18:06:46;4.50;;;2.00;;
12908;SDS011;6522;49.622;6.126;2022-09-09T18:09:31;5.97;;;2.90;;
12908;SDS011;6522;49.622;6.126;2022-09-09T18:12:18;4.03;;;2.65;;
12908;SDS011;6522;49.622;6.126;2022-09-09T18:15:05;5.37;;;3.15;;
12908;SDS011;6522;49.622;6.126;2022-09-09T18:17:52;6.95;;;2.80;;
12908;SDS011;6522;49.622;6.126;2022-09-09T18:20:39;4.65;;;2.58;;
12908;SDS011;6522;49.622;6.126;2022-09-09T18:23:29;6.32;;;2.90;;
12908;SDS011;6522;49.622;6.126;2022-09-09T18:26:14;7.80;;;2.87;;
12908;SDS011;6522;49.622;6.126;2022-09-09T18:29:01;4.00;;;2.72;;
12908;SDS011;6522;49.622;6.126;2022-09-09T18:31:49;6.00;;;3.20;;